sensor_id;sensor_type;location;lat;lon;timestamp;temperature;humidity
16140;DHT22;8175;49.326;12.690;2022-07-19T00:01:49;15.40;85.60
16140;DHT22;8175;49.326;12.690;2022-07-19T00:04:15;15.40;85.00
16140;DHT22;8175;49.326;12.690;2022-07-19T00:06:40;15.50;86.20
16140;DHT22;8175;49.326;12.690;2022-07-19T00:09:06;15.50;87.70
16140;DHT22;8175;49.326;12.690;2022-07-19T00:11:32;15.40;87.50
16140;DHT22;8175;49.326;12.690;2022-07-19T00:13:57;15.40;88.40
16140;DHT22;8175;49.326;12.690;2022-07-19T00:16:23;15.40;87.80
16140;DHT22;8175;49.326;12.690;2022-07-19T00:18:49;15.50;86.20
16140;DHT22;8175;49.326;12.690;2022-07-19T00:21:15;15.70;86.40
16140;DHT22;8175;49.326;12.690;2022-07-19T00:23:40;15.80;84.40
16140;DHT22;8175;49.326;12.690;2022-07-19T00:26:06;15.90;83.20
16140;DHT22;8175;49.326;12.690;2022-07-19T00:28:32;16.00;83.00
16140;DHT22;8175;49.326;12.690;2022-07-19T00:30:58;16.10;82.90
16140;DHT22;8175;49.326;12.690;2022-07-19T00:33:24;16.20;81.30
16140;DHT22;8175;49.326;12.690;2022-07-19T00:35:50;16.20;80.50
16140;DHT22;8175;49.326;12.690;2022-07-19T00:38:15;16.30;80.00
16140;DHT22;8175;49.326;12.690;2022-07-19T00:40:42;16.40;80.40
16140;DHT22;8175;49.326;12.690;2022-07-19T00:43:09;16.40;80.30
16140;DHT22;8175;49.326;12.690;2022-07-19T00:45:35;16.40;79.90
16140;DHT22;8175;49.326;12.690;2022-07-19T00:48:01;16.40;80.20
16140;DHT22;8175;49.326;12.690;2022-07-19T00:50:27;16.40;83.00
16140;DHT22;8175;49.326;12.690;2022-07-19T00:52:58;16.10;84.70
16140;DHT22;8175;49.326;12.690;2022-07-19T00:55:32;15.90;83.60
16140;DHT22;8175;49.326;12.690;2022-07-19T00:58:00;15.90;82.60
16140;DHT22;8175;49.326;12.690;2022-07-19T01:00:27;15.90;87.60
16140;DHT22;8175;49.326;12.690;2022-07-19T01:02:54;15.80;88.80
16140;DHT22;8175;49.326;12.690;2022-07-19T01:05:20;15.80;83.70
16140;DHT22;8175;49.326;12.690;2022-07-19T01:07:46;15.80;82.80
16140;DHT22;8175;49.326;12.690;2022-07-19T01:10:13;16.00;81.80
16140;DHT22;8175;49.326;12.690;2022-07-19T01:12:40;16.20;82.50
16140;DHT22;8175;49.326;12.690;2022-07-19T01:15:35;16.20;81.10
16140;DHT22;8175;49.326;12.690;2022-07-19T01:18:01;16.20;84.10
16140;DHT22;8175;49.326;12.690;2022-07-19T01:20:26;16.00;86.30
16140;DHT22;8175;49.326;12.690;2022-07-19T01:22:52;15.70;88.00
16140;DHT22;8175;49.326;12.690;2022-07-19T01:25:18;15.40;90.10
16140;DHT22;8175;49.326;12.690;2022-07-19T01:27:46;15.10;92.70
16140;DHT22;8175;49.326;12.690;2022-07-19T01:30:20;15.00;93.50
16140;DHT22;8175;49.326;12.690;2022-07-19T01:32:47;14.80;95.50
16140;DHT22;8175;49.326;12.690;2022-07-19T01:35:13;14.50;98.60
16140;DHT22;8175;49.326;12.690;2022-07-19T01:37:39;14.30;99.90
16140;DHT22;8175;49.326;12.690;2022-07-19T01:40:07;14.10;99.90
16140;DHT22;8175;49.326;12.690;2022-07-19T01:42:33;14.10;99.90
16140;DHT22;8175;49.326;12.690;2022-07-19T01:44:59;14.00;99.90
16140;DHT22;8175;49.326;12.690;2022-07-19T01:47:24;13.90;99.90
16140;DHT22;8175;49.326;12.690;2022-07-19T01:49:50;13.80;99.90
16140;DHT22;8175;49.326;12.690;2022-07-19T01:52:16;13.70;99.90
16140;DHT22;8175;49.326;12.690;2022-07-19T01:54:41;13.60;99.90
16140;DHT22;8175;49.326;12.690;2022-07-19T01:57:07;13.60;99.90
16140;DHT22;8175;49.326;12.690;2022-07-19T01:59:36;13.70;99.90
16140;DHT22;8175;49.326;12.690;2022-07-19T02:02:03;13.70;99.90
16140;DHT22;8175;49.326;12.690;2022-07-19T02:04:28;13.70;99.90
16140;DHT22;8175;49.326;12.690;2022-07-19T02:06:54;13.70;99.90
16140;DHT22;8175;49.326;12.690;2022-07-19T02:09:20;13.60;99.90
16140;DHT22;8175;49.326;12.690;2022-07-19T02:11:45;13.50;99.90
16140;DHT22;8175;49.326;12.690;2022-07-19T02:14:11;13.40;99.90
16140;DHT22;8175;49.326;12.690;2022-07-19T02:16:38;13.50;99.90
16140;DHT22;8175;49.326;12.690;2022-07-19T02:19:05;13.50;99.90
16140;DHT22;8175;49.326;12.690;2022-07-19T02:21:32;13.60;99.90
16140;DHT22;8175;49.326;12.690;2022-07-19T02:23:58;13.70;99.90
16140;DHT22;8175;49.326;12.690;2022-07-19T02:26:23;13.60;99.90
16140;DHT22;8175;49.326;12.690;2022-07-19T02:28:49;13.60;99.90
16140;DHT22;8175;49.326;12.690;2022-07-19T02:31:15;13.60;99.90
16140;DHT22;8175;49.326;12.690;2022-07-19T02:33:41;13.60;99.90
16140;DHT22;8175;49.326;12.690;2022-07-19T02:36:06;13.70;99.90
16140;DHT22;8175;49.326;12.690;2022-07-19T02:38:32;13.80;99.90
16140;DHT22;8175;49.326;12.690;2022-07-19T02:40:58;13.90;99.90
16140;DHT22;8175;49.326;12.690;2022-07-19T02:43:24;14.00;99.90
16140;DHT22;8175;49.326;12.690;2022-07-19T02:45:49;14.00;99.90
16140;DHT22;8175;49.326;12.690;2022-07-19T02:48:15;14.00;99.90
16140;DHT22;8175;49.326;12.690;2022-07-19T02:50:41;13.90;99.90
16140;DHT22;8175;49.326;12.690;2022-07-19T02:53:07;14.00;99.90
16140;DHT22;8175;49.326;12.690;2022-07-19T02:55:33;14.00;99.90
16140;DHT22;8175;49.326;12.690;2022-07-19T02:57:58;13.90;99.90
16140;DHT22;8175;49.326;12.690;2022-07-19T03:00:24;13.80;99.90
16140;DHT22;8175;49.326;12.690;2022-07-19T03:02:50;13.70;99.90
16140;DHT22;8175;49.326;12.690;2022-07-19T03:05:15;13.50;99.90
16140;DHT22;8175;49.326;12.690;2022-07-19T03:07:41;13.30;99.90
16140;DHT22;8175;49.326;12.690;2022-07-19T03:10:07;13.10;99.90
16140;DHT22;8175;49.326;12.690;2022-07-19T03:12:33;13.00;99.90
16140;DHT22;8175;49.326;12.690;2022-07-19T03:14:59;12.90;99.90
16140;DHT22;8175;49.326;12.690;2022-07-19T03:17:25;12.80;99.90
16140;DHT22;8175;49.326;12.690;2022-07-19T03:19:51;12.80;99.90
16140;DHT22;8175;49.326;12.690;2022-07-19T03:22:16;12.80;99.90
16140;DHT22;8175;49.326;12.690;2022-07-19T03:24:42;12.90;99.90
16140;DHT22;8175;49.326;12.690;2022-07-19T03:27:07;12.90;99.90
16140;DHT22;8175;49.326;12.690;2022-07-19T03:29:33;13.10;99.90
16140;DHT22;8175;49.326;12.690;2022-07-19T03:31:59;13.10;99.90
16140;DHT22;8175;49.326;12.690;2022-07-19T03:34:26;13.20;99.90
16140;DHT22;8175;49.326;12.690;2022-07-19T03:36:51;13.20;99.90
16140;DHT22;8175;49.326;12.690;2022-07-19T03:39:17;13.20;99.90
16140;DHT22;8175;49.326;12.690;2022-07-19T03:41:43;13.20;99.90
16140;DHT22;8175;49.326;12.690;2022-07-19T03:44:08;13.20;99.90
16140;DHT22;8175;49.326;12.690;2022-07-19T03:46:34;13.10;99.90
16140;DHT22;8175;49.326;12.690;2022-07-19T03:49:00;13.00;99.90
16140;DHT22;8175;49.326;12.690;2022-07-19T03:51:25;12.90;99.90
16140;DHT22;8175;49.326;12.690;2022-07-19T03:53:51;12.90;99.90
16140;DHT22;8175;49.326;12.690;2022-07-19T03:56:17;12.90;99.90
16140;DHT22;8175;49.326;12.690;2022-07-19T03:58:50;13.00;99.90
16140;DHT22;8175;49.326;12.690;2022-07-19T04:01:16;13.10;99.90
16140;DHT22;8175;49.326;12.690;2022-07-19T04:03:42;13.10;99.90
16140;DHT22;8175;49.326;12.690;2022-07-19T04:06:10;13.00;99.90
16140;DHT22;8175;49.326;12.690;2022-07-19T04:08:36;12.90;99.90
16140;DHT22;8175;49.326;12.690;2022-07-19T04:11:03;12.90;99.90
16140;DHT22;8175;49.326;12.690;2022-07-19T04:13:29;12.90;99.90
16140;DHT22;8175;49.326;12.690;2022-07-19T04:15:57;12.90;99.90
16140;DHT22;8175;49.326;12.690;2022-07-19T04:18:22;13.00;99.90
16140;DHT22;8175;49.326;12.690;2022-07-19T04:20:48;13.00;99.90
16140;DHT22;8175;49.326;12.690;2022-07-19T04:23:13;13.00;99.90
16140;DHT22;8175;49.326;12.690;2022-07-19T04:25:39;13.00;99.90
16140;DHT22;8175;49.326;12.690;2022-07-19T04:28:05;13.00;99.90
16140;DHT22;8175;49.326;12.690;2022-07-19T04:30:31;13.10;99.90
16140;DHT22;8175;49.326;12.690;2022-07-19T04:32:57;13.30;99.90
16140;DHT22;8175;49.326;12.690;2022-07-19T04:35:22;13.40;99.90
16140;DHT22;8175;49.326;12.690;2022-07-19T04:37:48;13.40;99.90
16140;DHT22;8175;49.326;12.690;2022-07-19T04:40:13;13.40;99.90
16140;DHT22;8175;49.326;12.690;2022-07-19T04:42:39;13.40;99.90
16140;DHT22;8175;49.326;12.690;2022-07-19T04:45:05;13.40;99.90
16140;DHT22;8175;49.326;12.690;2022-07-19T04:47:31;13.40;99.90
16140;DHT22;8175;49.326;12.690;2022-07-19T04:49:57;13.40;99.90
16140;DHT22;8175;49.326;12.690;2022-07-19T04:52:23;13.50;99.90
16140;DHT22;8175;49.326;12.690;2022-07-19T04:54:48;13.60;99.90
16140;DHT22;8175;49.326;12.690;2022-07-19T04:57:14;13.60;99.90
16140;DHT22;8175;49.326;12.690;2022-07-19T04:59:40;13.60;99.90
16140;DHT22;8175;49.326;12.690;2022-07-19T05:02:06;13.70;99.90
16140;DHT22;8175;49.326;12.690;2022-07-19T05:04:32;13.80;99.90
16140;DHT22;8175;49.326;12.690;2022-07-19T05:06:58;13.80;99.90
16140;DHT22;8175;49.326;12.690;2022-07-19T05:09:28;13.80;99.90
16140;DHT22;8175;49.326;12.690;2022-07-19T05:11:54;13.90;99.90
16140;DHT22;8175;49.326;12.690;2022-07-19T05:14:20;13.90;99.90
16140;DHT22;8175;49.326;12.690;2022-07-19T05:16:47;14.00;99.90
16140;DHT22;8175;49.326;12.690;2022-07-19T05:19:15;14.10;99.90
16140;DHT22;8175;49.326;12.690;2022-07-19T05:21:41;14.10;99.90
16140;DHT22;8175;49.326;12.690;2022-07-19T05:24:06;14.20;99.90
16140;DHT22;8175;49.326;12.690;2022-07-19T05:26:32;14.20;99.90
16140;DHT22;8175;49.326;12.690;2022-07-19T05:28:59;14.30;99.90
16140;DHT22;8175;49.326;12.690;2022-07-19T05:31:25;14.50;99.90
16140;DHT22;8175;49.326;12.690;2022-07-19T05:33:51;14.60;99.90
16140;DHT22;8175;49.326;12.690;2022-07-19T05:36:17;14.80;99.90
16140;DHT22;8175;49.326;12.690;2022-07-19T05:38:43;15.00;99.90
16140;DHT22;8175;49.326;12.690;2022-07-19T05:41:09;15.30;99.90
16140;DHT22;8175;49.326;12.690;2022-07-19T05:43:36;15.40;99.90
16140;DHT22;8175;49.326;12.690;2022-07-19T05:46:03;15.60;99.90
16140;DHT22;8175;49.326;12.690;2022-07-19T05:48:30;15.80;99.90
16140;DHT22;8175;49.326;12.690;2022-07-19T05:50:56;16.00;99.90
16140;DHT22;8175;49.326;12.690;2022-07-19T05:53:22;16.20;99.90
16140;DHT22;8175;49.326;12.690;2022-07-19T05:55:48;16.40;99.90
16140;DHT22;8175;49.326;12.690;2022-07-19T05:58:14;16.60;99.90
16140;DHT22;8175;49.326;12.690;2022-07-19T06:00:39;16.80;99.90
16140;DHT22;8175;49.326;12.690;2022-07-19T06:03:25;16.90;99.90
16140;DHT22;8175;49.326;12.690;2022-07-19T06:05:51;17.20;99.90
16140;DHT22;8175;49.326;12.690;2022-07-19T06:08:16;17.40;99.90
16140;DHT22;8175;49.326;12.690;2022-07-19T06:10:42;17.60;99.90
16140;DHT22;8175;49.326;12.690;2022-07-19T06:13:07;17.80;99.90
16140;DHT22;8175;49.326;12.690;2022-07-19T06:15:33;17.90;99.90
16140;DHT22;8175;49.326;12.690;2022-07-19T06:17:58;18.10;99.90
16140;DHT22;8175;49.326;12.690;2022-07-19T06:20:24;18.30;99.90
16140;DHT22;8175;49.326;12.690;2022-07-19T06:22:50;18.50;99.90
16140;DHT22;8175;49.326;12.690;2022-07-19T06:25:15;18.60;99.90
16140;DHT22;8175;49.326;12.690;2022-07-19T06:27:41;18.70;99.90
16140;DHT22;8175;49.326;12.690;2022-07-19T06:30:07;18.90;99.90
16140;DHT22;8175;49.326;12.690;2022-07-19T06:32:32;19.10;99.90
16140;DHT22;8175;49.326;12.690;2022-07-19T06:34:58;19.30;99.90
16140;DHT22;8175;49.326;12.690;2022-07-19T06:37:24;19.50;99.90
16140;DHT22;8175;49.326;12.690;2022-07-19T06:39:49;19.70;99.90
16140;DHT22;8175;49.326;12.690;2022-07-19T06:42:15;19.90;99.90
16140;DHT22;8175;49.326;12.690;2022-07-19T06:44:41;19.90;99.90
16140;DHT22;8175;49.326;12.690;2022-07-19T06:47:06;20.00;99.90
16140;DHT22;8175;49.326;12.690;2022-07-19T06:49:32;20.10;99.90
16140;DHT22;8175;49.326;12.690;2022-07-19T06:51:57;20.50;99.90
16140;DHT22;8175;49.326;12.690;2022-07-19T06:54:23;20.70;99.90
16140;DHT22;8175;49.326;12.690;2022-07-19T06:56:49;20.90;99.90
16140;DHT22;8175;49.326;12.690;2022-07-19T06:59:14;21.00;99.90
16140;DHT22;8175;49.326;12.690;2022-07-19T07:01:40;21.10;99.90
16140;DHT22;8175;49.326;12.690;2022-07-19T07:04:06;21.20;99.90
16140;DHT22;8175;49.326;12.690;2022-07-19T07:06:31;21.60;99.90
16140;DHT22;8175;49.326;12.690;2022-07-19T07:08:57;22.40;99.90
16140;DHT22;8175;49.326;12.690;2022-07-19T07:11:22;24.00;99.30
16140;DHT22;8175;49.326;12.690;2022-07-19T07:13:48;25.00;94.50
16140;DHT22;8175;49.326;12.690;2022-07-19T07:16:14;25.50;90.80
16140;DHT22;8175;49.326;12.690;2022-07-19T07:18:39;25.20;89.60
16140;DHT22;8175;49.326;12.690;2022-07-19T07:21:05;24.60;88.90
16140;DHT22;8175;49.326;12.690;2022-07-19T07:23:31;24.20;90.80
16140;DHT22;8175;49.326;12.690;2022-07-19T07:25:56;23.80;91.20
16140;DHT22;8175;49.326;12.690;2022-07-19T07:28:22;23.70;89.80
16140;DHT22;8175;49.326;12.690;2022-07-19T07:30:48;23.70;88.80
16140;DHT22;8175;49.326;12.690;2022-07-19T07:33:13;23.90;90.40
16140;DHT22;8175;49.326;12.690;2022-07-19T07:35:39;24.20;89.90
16140;DHT22;8175;49.326;12.690;2022-07-19T07:38:04;24.40;87.30
16140;DHT22;8175;49.326;12.690;2022-07-19T07:40:30;24.70;86.60
16140;DHT22;8175;49.326;12.690;2022-07-19T07:42:56;24.80;85.20
16140;DHT22;8175;49.326;12.690;2022-07-19T07:45:21;25.20;81.00
16140;DHT22;8175;49.326;12.690;2022-07-19T07:47:47;26.00;77.10
16140;DHT22;8175;49.326;12.690;2022-07-19T07:50:13;26.50;75.30
16140;DHT22;8175;49.326;12.690;2022-07-19T07:52:39;27.00;70.10
16140;DHT22;8175;49.326;12.690;2022-07-19T07:55:05;28.00;68.80
16140;DHT22;8175;49.326;12.690;2022-07-19T07:57:31;29.40;61.00
16140;DHT22;8175;49.326;12.690;2022-07-19T07:59:56;29.80;59.50
16140;DHT22;8175;49.326;12.690;2022-07-19T08:02:22;30.40;54.80
16140;DHT22;8175;49.326;12.690;2022-07-19T08:04:48;31.50;52.20
16140;DHT22;8175;49.326;12.690;2022-07-19T08:07:13;31.80;52.40
16140;DHT22;8175;49.326;12.690;2022-07-19T08:09:39;32.00;49.60
16140;DHT22;8175;49.326;12.690;2022-07-19T08:12:05;32.10;48.50
16140;DHT22;8175;49.326;12.690;2022-07-19T08:14:30;32.60;47.40
16140;DHT22;8175;49.326;12.690;2022-07-19T08:16:56;32.70;46.00
16140;DHT22;8175;49.326;12.690;2022-07-19T08:19:22;32.70;46.10
16140;DHT22;8175;49.326;12.690;2022-07-19T08:21:48;32.60;46.00
16140;DHT22;8175;49.326;12.690;2022-07-19T08:24:13;32.90;44.70
16140;DHT22;8175;49.326;12.690;2022-07-19T08:26:39;33.50;46.40
16140;DHT22;8175;49.326;12.690;2022-07-19T08:29:04;33.70;44.80
16140;DHT22;8175;49.326;12.690;2022-07-19T08:31:30;33.80;45.30
16140;DHT22;8175;49.326;12.690;2022-07-19T08:33:56;34.00;44.10
16140;DHT22;8175;49.326;12.690;2022-07-19T08:36:21;34.20;44.50
16140;DHT22;8175;49.326;12.690;2022-07-19T08:38:47;34.00;44.20
16140;DHT22;8175;49.326;12.690;2022-07-19T08:41:14;34.10;43.00
16140;DHT22;8175;49.326;12.690;2022-07-19T08:43:40;34.00;43.40
16140;DHT22;8175;49.326;12.690;2022-07-19T08:46:06;34.10;42.60
16140;DHT22;8175;49.326;12.690;2022-07-19T08:48:33;33.60;39.40
16140;DHT22;8175;49.326;12.690;2022-07-19T08:51:00;34.20;42.30
16140;DHT22;8175;49.326;12.690;2022-07-19T08:53:29;34.80;41.20
16140;DHT22;8175;49.326;12.690;2022-07-19T08:55:56;35.00;39.60
16140;DHT22;8175;49.326;12.690;2022-07-19T08:58:21;35.40;39.70
16140;DHT22;8175;49.326;12.690;2022-07-19T09:00:47;35.30;39.80
16140;DHT22;8175;49.326;12.690;2022-07-19T09:03:13;35.70;40.10
16140;DHT22;8175;49.326;12.690;2022-07-19T09:05:38;36.10;38.70
16140;DHT22;8175;49.326;12.690;2022-07-19T09:10:34;36.60;36.40
16140;DHT22;8175;49.326;12.690;2022-07-19T09:13:11;35.90;37.20
16140;DHT22;8175;49.326;12.690;2022-07-19T09:15:51;36.30;39.80
16140;DHT22;8175;49.326;12.690;2022-07-19T09:20:57;36.70;36.80
16140;DHT22;8175;49.326;12.690;2022-07-19T09:23:24;36.30;37.60
16140;DHT22;8175;49.326;12.690;2022-07-19T09:25:56;35.90;36.80
16140;DHT22;8175;49.326;12.690;2022-07-19T09:28:23;35.90;36.80
16140;DHT22;8175;49.326;12.690;2022-07-19T09:30:59;36.00;37.10
16140;DHT22;8175;49.326;12.690;2022-07-19T09:33:28;35.20;36.80
16140;DHT22;8175;49.326;12.690;2022-07-19T09:35:56;35.20;39.30
16140;DHT22;8175;49.326;12.690;2022-07-19T09:38:35;35.20;37.00
16140;DHT22;8175;49.326;12.690;2022-07-19T09:46:33;35.70;36.20
16140;DHT22;8175;49.326;12.690;2022-07-19T09:51:34;35.40;38.60
16140;DHT22;8175;49.326;12.690;2022-07-19T09:54:02;35.90;38.40
16140;DHT22;8175;49.326;12.690;2022-07-19T09:56:29;36.60;34.80
16140;DHT22;8175;49.326;12.690;2022-07-19T09:58:56;37.60;34.10
16140;DHT22;8175;49.326;12.690;2022-07-19T10:01:22;38.50;34.40
16140;DHT22;8175;49.326;12.690;2022-07-19T10:03:49;38.30;32.90
16140;DHT22;8175;49.326;12.690;2022-07-19T10:06:16;37.60;34.30
16140;DHT22;8175;49.326;12.690;2022-07-19T10:08:42;37.20;33.80
16140;DHT22;8175;49.326;12.690;2022-07-19T10:11:08;37.00;32.30
16140;DHT22;8175;49.326;12.690;2022-07-19T10:13:34;37.50;33.70
16140;DHT22;8175;49.326;12.690;2022-07-19T10:16:02;37.50;31.60
16140;DHT22;8175;49.326;12.690;2022-07-19T10:18:33;37.20;35.40
16140;DHT22;8175;49.326;12.690;2022-07-19T10:21:03;37.40;34.20
16140;DHT22;8175;49.326;12.690;2022-07-19T10:23:29;37.00;35.60
16140;DHT22;8175;49.326;12.690;2022-07-19T10:25:56;36.40;32.60
16140;DHT22;8175;49.326;12.690;2022-07-19T10:28:29;36.20;36.10
16140;DHT22;8175;49.326;12.690;2022-07-19T10:30:55;36.50;34.10
16140;DHT22;8175;49.326;12.690;2022-07-19T10:33:31;37.50;34.10
16140;DHT22;8175;49.326;12.690;2022-07-19T10:35:57;37.60;31.90
16140;DHT22;8175;49.326;12.690;2022-07-19T10:38:22;37.90;33.20
16140;DHT22;8175;49.326;12.690;2022-07-19T10:43:19;37.70;32.20
16140;DHT22;8175;49.326;12.690;2022-07-19T10:51:00;36.70;32.10
16140;DHT22;8175;49.326;12.690;2022-07-19T10:53:54;36.50;33.80
16140;DHT22;8175;49.326;12.690;2022-07-19T10:56:30;37.50;33.30
16140;DHT22;8175;49.326;12.690;2022-07-19T10:58:59;37.70;35.80
16140;DHT22;8175;49.326;12.690;2022-07-19T11:01:26;37.40;33.20
16140;DHT22;8175;49.326;12.690;2022-07-19T11:03:54;36.90;32.70
16140;DHT22;8175;49.326;12.690;2022-07-19T11:06:39;36.60;35.40
16140;DHT22;8175;49.326;12.690;2022-07-19T11:09:05;36.50;35.50
16140;DHT22;8175;49.326;12.690;2022-07-19T11:11:31;36.90;34.80
16140;DHT22;8175;49.326;12.690;2022-07-19T11:13:57;37.00;33.50
16140;DHT22;8175;49.326;12.690;2022-07-19T11:16:25;36.60;35.00
16140;DHT22;8175;49.326;12.690;2022-07-19T11:18:51;35.00;34.50
16140;DHT22;8175;49.326;12.690;2022-07-19T11:21:17;35.50;34.60
16140;DHT22;8175;49.326;12.690;2022-07-19T11:23:44;36.10;32.40
16140;DHT22;8175;49.326;12.690;2022-07-19T11:26:12;35.70;34.20
16140;DHT22;8175;49.326;12.690;2022-07-19T11:28:39;37.30;34.90
16140;DHT22;8175;49.326;12.690;2022-07-19T11:33:37;38.10;33.10
16140;DHT22;8175;49.326;12.690;2022-07-19T11:36:03;38.10;31.90
16140;DHT22;8175;49.326;12.690;2022-07-19T11:41:00;37.70;30.50
16140;DHT22;8175;49.326;12.690;2022-07-19T11:43:26;37.40;31.50
16140;DHT22;8175;49.326;12.690;2022-07-19T11:45:51;37.60;33.70
16140;DHT22;8175;49.326;12.690;2022-07-19T11:48:29;38.70;30.80
16140;DHT22;8175;49.326;12.690;2022-07-19T11:51:05;38.50;32.10
16140;DHT22;8175;49.326;12.690;2022-07-19T11:53:33;38.40;32.00
16140;DHT22;8175;49.326;12.690;2022-07-19T11:55:59;38.00;31.10
16140;DHT22;8175;49.326;12.690;2022-07-19T11:58:25;37.90;32.40
16140;DHT22;8175;49.326;12.690;2022-07-19T12:00:51;37.90;30.00
16140;DHT22;8175;49.326;12.690;2022-07-19T12:03:18;38.20;32.80
16140;DHT22;8175;49.326;12.690;2022-07-19T12:05:56;36.80;32.70
16140;DHT22;8175;49.326;12.690;2022-07-19T12:08:34;37.30;33.30
16140;DHT22;8175;49.326;12.690;2022-07-19T12:11:00;38.30;31.50
16140;DHT22;8175;49.326;12.690;2022-07-19T12:13:31;39.20;32.60
16140;DHT22;8175;49.326;12.690;2022-07-19T12:15:59;39.70;32.20
16140;DHT22;8175;49.326;12.690;2022-07-19T12:18:52;39.00;30.90
16140;DHT22;8175;49.326;12.690;2022-07-19T12:21:23;38.40;31.70
16140;DHT22;8175;49.326;12.690;2022-07-19T12:24:13;38.30;32.00
16140;DHT22;8175;49.326;12.690;2022-07-19T12:26:42;38.00;30.10
16140;DHT22;8175;49.326;12.690;2022-07-19T12:29:34;37.90;32.40
16140;DHT22;8175;49.326;12.690;2022-07-19T12:32:04;37.50;33.90
16140;DHT22;8175;49.326;12.690;2022-07-19T12:40:09;36.80;33.20
16140;DHT22;8175;49.326;12.690;2022-07-19T12:42:55;36.10;34.60
16140;DHT22;8175;49.326;12.690;2022-07-19T12:45:36;36.90;34.70
16140;DHT22;8175;49.326;12.690;2022-07-19T12:48:03;36.60;33.70
16140;DHT22;8175;49.326;12.690;2022-07-19T12:50:35;36.00;35.50
16140;DHT22;8175;49.326;12.690;2022-07-19T12:53:03;36.90;32.10
16140;DHT22;8175;49.326;12.690;2022-07-19T12:55:30;37.00;34.00
16140;DHT22;8175;49.326;12.690;2022-07-19T12:57:59;37.70;34.30
16140;DHT22;8175;49.326;12.690;2022-07-19T13:00:27;37.90;32.80
16140;DHT22;8175;49.326;12.690;2022-07-19T13:02:54;38.90;34.00
16140;DHT22;8175;49.326;12.690;2022-07-19T13:05:21;37.70;31.20
16140;DHT22;8175;49.326;12.690;2022-07-19T13:07:47;38.60;31.40
16140;DHT22;8175;49.326;12.690;2022-07-19T13:10:13;39.10;31.40
16140;DHT22;8175;49.326;12.690;2022-07-19T13:12:39;39.00;30.60
16140;DHT22;8175;49.326;12.690;2022-07-19T13:15:06;37.50;30.10
16140;DHT22;8175;49.326;12.690;2022-07-19T13:17:33;36.10;32.90
16140;DHT22;8175;49.326;12.690;2022-07-19T13:19:58;35.30;32.90
16140;DHT22;8175;49.326;12.690;2022-07-19T13:22:24;36.00;35.40
16140;DHT22;8175;49.326;12.690;2022-07-19T13:24:50;37.00;34.50
16140;DHT22;8175;49.326;12.690;2022-07-19T13:27:16;37.70;34.50
16140;DHT22;8175;49.326;12.690;2022-07-19T13:29:43;38.50;35.20
16140;DHT22;8175;49.326;12.690;2022-07-19T13:32:09;38.90;32.90
16140;DHT22;8175;49.326;12.690;2022-07-19T13:34:37;38.90;31.00
16140;DHT22;8175;49.326;12.690;2022-07-19T13:37:03;39.00;32.40
16140;DHT22;8175;49.326;12.690;2022-07-19T13:39:29;38.30;32.00
16140;DHT22;8175;49.326;12.690;2022-07-19T13:41:56;38.30;32.70
16140;DHT22;8175;49.326;12.690;2022-07-19T13:44:21;37.90;31.70
16140;DHT22;8175;49.326;12.690;2022-07-19T13:46:47;37.80;31.70
16140;DHT22;8175;49.326;12.690;2022-07-19T13:49:13;38.00;31.80
16140;DHT22;8175;49.326;12.690;2022-07-19T13:51:39;38.10;32.70
16140;DHT22;8175;49.326;12.690;2022-07-19T13:54:05;38.10;32.40
16140;DHT22;8175;49.326;12.690;2022-07-19T13:56:31;38.80;31.20
16140;DHT22;8175;49.326;12.690;2022-07-19T13:58:56;37.30;31.10
16140;DHT22;8175;49.326;12.690;2022-07-19T14:01:22;37.80;32.40
16140;DHT22;8175;49.326;12.690;2022-07-19T14:03:48;38.40;32.10
16140;DHT22;8175;49.326;12.690;2022-07-19T14:06:14;38.70;32.30
16140;DHT22;8175;49.326;12.690;2022-07-19T14:08:40;37.30;30.40
16140;DHT22;8175;49.326;12.690;2022-07-19T14:11:06;36.80;32.90
16140;DHT22;8175;49.326;12.690;2022-07-19T14:13:32;37.00;33.20
16140;DHT22;8175;49.326;12.690;2022-07-19T14:16:02;37.10;32.70
16140;DHT22;8175;49.326;12.690;2022-07-19T14:18:28;37.50;33.90
16140;DHT22;8175;49.326;12.690;2022-07-19T14:20:54;37.40;32.70
16140;DHT22;8175;49.326;12.690;2022-07-19T14:23:20;37.10;34.50
16140;DHT22;8175;49.326;12.690;2022-07-19T14:25:46;37.00;33.90
16140;DHT22;8175;49.326;12.690;2022-07-19T14:28:11;36.50;33.30
16140;DHT22;8175;49.326;12.690;2022-07-19T14:30:37;36.90;35.00
16140;DHT22;8175;49.326;12.690;2022-07-19T14:33:03;36.70;33.90
16140;DHT22;8175;49.326;12.690;2022-07-19T14:35:29;36.40;34.20
16140;DHT22;8175;49.326;12.690;2022-07-19T14:37:55;36.30;33.30
16140;DHT22;8175;49.326;12.690;2022-07-19T14:40:21;36.50;34.50
16140;DHT22;8175;49.326;12.690;2022-07-19T14:42:47;36.90;33.30
16140;DHT22;8175;49.326;12.690;2022-07-19T14:45:13;37.20;31.30
16140;DHT22;8175;49.326;12.690;2022-07-19T14:47:39;37.80;33.50
16140;DHT22;8175;49.326;12.690;2022-07-19T14:50:07;37.50;33.10
16140;DHT22;8175;49.326;12.690;2022-07-19T14:52:33;37.60;31.90
16140;DHT22;8175;49.326;12.690;2022-07-19T14:54:59;37.30;30.20
16140;DHT22;8175;49.326;12.690;2022-07-19T14:57:25;37.20;32.70
16140;DHT22;8175;49.326;12.690;2022-07-19T14:59:51;36.90;34.70
16140;DHT22;8175;49.326;12.690;2022-07-19T15:02:18;36.70;32.70
16140;DHT22;8175;49.326;12.690;2022-07-19T15:04:44;37.00;35.30
16140;DHT22;8175;49.326;12.690;2022-07-19T15:07:09;36.80;32.30
16140;DHT22;8175;49.326;12.690;2022-07-19T15:09:35;37.00;35.60
16140;DHT22;8175;49.326;12.690;2022-07-19T15:12:02;36.90;31.70
16140;DHT22;8175;49.326;12.690;2022-07-19T15:14:29;35.90;34.90
16140;DHT22;8175;49.326;12.690;2022-07-19T15:16:56;36.10;33.90
16140;DHT22;8175;49.326;12.690;2022-07-19T15:19:22;37.00;33.90
16140;DHT22;8175;49.326;12.690;2022-07-19T15:21:47;37.10;34.10
16140;DHT22;8175;49.326;12.690;2022-07-19T15:24:13;36.90;34.90
16140;DHT22;8175;49.326;12.690;2022-07-19T15:26:39;36.70;33.70
16140;DHT22;8175;49.326;12.690;2022-07-19T15:29:04;36.20;34.70
16140;DHT22;8175;49.326;12.690;2022-07-19T15:31:30;36.50;34.20
16140;DHT22;8175;49.326;12.690;2022-07-19T15:33:56;36.60;34.80
16140;DHT22;8175;49.326;12.690;2022-07-19T15:36:22;36.20;33.80
16140;DHT22;8175;49.326;12.690;2022-07-19T15:38:49;35.50;35.50
16140;DHT22;8175;49.326;12.690;2022-07-19T15:41:15;35.60;37.60
16140;DHT22;8175;49.326;12.690;2022-07-19T15:43:42;35.60;35.10
16140;DHT22;8175;49.326;12.690;2022-07-19T15:46:09;35.60;35.20
16140;DHT22;8175;49.326;12.690;2022-07-19T15:48:36;36.10;37.10
16140;DHT22;8175;49.326;12.690;2022-07-19T15:51:02;36.10;34.70
16140;DHT22;8175;49.326;12.690;2022-07-19T15:53:27;35.70;33.70
16140;DHT22;8175;49.326;12.690;2022-07-19T15:55:53;36.20;37.10
16140;DHT22;8175;49.326;12.690;2022-07-19T15:58:19;36.60;34.80
16140;DHT22;8175;49.326;12.690;2022-07-19T16:00:44;36.40;33.00